In Rescue
 
Open Full Screen Window  High Contrast Mode
Wind Gusting 14 knots
08
March 04, 2021 3:31 AM EST
Weather Information
Wind Direction
  330 °
Wind Speed
  08 kt (9 mph)
Wind Gust
  14 kt (16 mph)
Altimeter
30.11 in
Visibility
10 SM
Temperature
-02° C
28° F
Dewpoint
-07° C
19° F
Humidity
69%
Sky Condition
Overcast @ 2,300 ft
MVFR

METAR KCFS 040831Z AUTO 33008G14KT 10SM OVC023 M02/M07 A3011 RMK AO2 T10161070

FAA Disclaimer: The data displayed is for advisory purposes only and is not to be used for flight planning or operations.